sensor_id;sensor_type;location;lat;lon;timestamp;temperature;humidity
40289;DHT22;28991;52.028;5.526;2022-10-31T00:01:09;20.00;66.50
40289;DHT22;28991;52.028;5.526;2022-10-31T00:03:35;19.90;66.50
40289;DHT22;28991;52.028;5.526;2022-10-31T00:06:00;20.30;66.70
40289;DHT22;28991;52.028;5.526;2022-10-31T00:08:26;19.90;66.50
40289;DHT22;28991;52.028;5.526;2022-10-31T00:10:52;20.50;66.90
40289;DHT22;28991;52.028;5.526;2022-10-31T00:13:17;20.00;66.60
40289;DHT22;28991;52.028;5.526;2022-10-31T00:15:43;20.00;66.60
40289;DHT22;28991;52.028;5.526;2022-10-31T00:18:09;19.90;66.50
40289;DHT22;28991;52.028;5.526;2022-10-31T00:20:34;19.90;66.50
40289;DHT22;28991;52.028;5.526;2022-10-31T00:23:00;19.90;66.50
40289;DHT22;28991;52.028;5.526;2022-10-31T00:25:26;19.90;66.50
40289;DHT22;28991;52.028;5.526;2022-10-31T00:27:52;19.90;66.50
40289;DHT22;28991;52.028;5.526;2022-10-31T00:30:18;19.90;66.50
40289;DHT22;28991;52.028;5.526;2022-10-31T00:32:43;19.90;66.60
40289;DHT22;28991;52.028;5.526;2022-10-31T00:35:09;20.20;66.70
40289;DHT22;28991;52.028;5.526;2022-10-31T00:37:34;20.10;66.70
40289;DHT22;28991;52.028;5.526;2022-10-31T00:40:00;19.90;66.50
40289;DHT22;28991;52.028;5.526;2022-10-31T00:42:25;20.00;66.60
40289;DHT22;28991;52.028;5.526;2022-10-31T00:44:51;19.90;66.60
40289;DHT22;28991;52.028;5.526;2022-10-31T00:47:16;19.90;66.60
40289;DHT22;28991;52.028;5.526;2022-10-31T00:49:42;19.90;66.60
40289;DHT22;28991;52.028;5.526;2022-10-31T00:52:07;19.90;66.60
40289;DHT22;28991;52.028;5.526;2022-10-31T00:54:32;20.00;66.60
40289;DHT22;28991;52.028;5.526;2022-10-31T00:56:58;20.00;66.60
40289;DHT22;28991;52.028;5.526;2022-10-31T00:59:23;19.90;66.60
40289;DHT22;28991;52.028;5.526;2022-10-31T01:01:49;19.90;66.60
40289;DHT22;28991;52.028;5.526;2022-10-31T01:04:14;19.90;66.60
40289;DHT22;28991;52.028;5.526;2022-10-31T01:06:40;19.90;66.60
40289;DHT22;28991;52.028;5.526;2022-10-31T01:09:05;19.90;66.60
40289;DHT22;28991;52.028;5.526;2022-10-31T01:11:31;19.90;66.60
40289;DHT22;28991;52.028;5.526;2022-10-31T01:13:56;19.90;66.60
40289;DHT22;28991;52.028;5.526;2022-10-31T01:16:22;19.90;66.60
40289;DHT22;28991;52.028;5.526;2022-10-31T01:18:48;19.90;66.60
40289;DHT22;28991;52.028;5.526;2022-10-31T01:21:16;19.90;66.60
40289;DHT22;28991;52.028;5.526;2022-10-31T01:23:41;19.90;66.60
40289;DHT22;28991;52.028;5.526;2022-10-31T01:26:08;19.90;66.60
40289;DHT22;28991;52.028;5.526;2022-10-31T01:28:35;19.90;66.60
40289;DHT22;28991;52.028;5.526;2022-10-31T01:31:02;19.90;66.60
40289;DHT22;28991;52.028;5.526;2022-10-31T01:33:27;19.90;66.60
40289;DHT22;28991;52.028;5.526;2022-10-31T01:35:53;19.90;66.60
40289;DHT22;28991;52.028;5.526;2022-10-31T01:38:18;19.80;66.60
40289;DHT22;28991;52.028;5.526;2022-10-31T01:40:44;19.90;66.60
40289;DHT22;28991;52.028;5.526;2022-10-31T01:43:12;19.90;66.60
40289;DHT22;28991;52.028;5.526;2022-10-31T01:45:38;19.90;66.60
40289;DHT22;28991;52.028;5.526;2022-10-31T01:48:04;19.90;66.70
40289;DHT22;28991;52.028;5.526;2022-10-31T01:50:31;19.90;66.70
40289;DHT22;28991;52.028;5.526;2022-10-31T01:52:57;19.90;66.70
40289;DHT22;28991;52.028;5.526;2022-10-31T01:55:28;19.90;66.70
40289;DHT22;28991;52.028;5.526;2022-10-31T01:57:57;19.90;66.70
40289;DHT22;28991;52.028;5.526;2022-10-31T02:00:23;19.80;66.60
40289;DHT22;28991;52.028;5.526;2022-10-31T02:02:49;19.70;66.60
40289;DHT22;28991;52.028;5.526;2022-10-31T02:05:20;19.90;66.70
40289;DHT22;28991;52.028;5.526;2022-10-31T02:10:31;19.90;66.70
40289;DHT22;28991;52.028;5.526;2022-10-31T02:12:57;20.10;66.80
40289;DHT22;28991;52.028;5.526;2022-10-31T02:15:23;19.90;66.70
40289;DHT22;28991;52.028;5.526;2022-10-31T02:17:49;19.80;66.60
40289;DHT22;28991;52.028;5.526;2022-10-31T02:20:21;19.80;66.60
40289;DHT22;28991;52.028;5.526;2022-10-31T02:33:39;19.80;66.60
40289;DHT22;28991;52.028;5.526;2022-10-31T02:36:28;19.80;66.60
40289;DHT22;28991;52.028;5.526;2022-10-31T02:46:22;19.70;66.60
40289;DHT22;28991;52.028;5.526;2022-10-31T02:48:50;19.80;66.60
40289;DHT22;28991;52.028;5.526;2022-10-31T02:51:18;19.80;66.60
40289;DHT22;28991;52.028;5.526;2022-10-31T02:53:44;19.80;66.70
40289;DHT22;28991;52.028;5.526;2022-10-31T02:58:36;20.20;66.90
40289;DHT22;28991;52.028;5.526;2022-10-31T03:03:59;19.80;66.70
40289;DHT22;28991;52.028;5.526;2022-10-31T03:07:15;19.80;66.70
40289;DHT22;28991;52.028;5.526;2022-10-31T03:09:15;19.80;66.70
40289;DHT22;28991;52.028;5.526;2022-10-31T03:11:45;19.80;66.70
40289;DHT22;28991;52.028;5.526;2022-10-31T03:14:20;19.80;66.70
40289;DHT22;28991;52.028;5.526;2022-10-31T03:16:48;19.80;66.70
40289;DHT22;28991;52.028;5.526;2022-10-31T03:22:12;19.80;66.70
40289;DHT22;28991;52.028;5.526;2022-10-31T03:24:35;19.80;66.70
40289;DHT22;28991;52.028;5.526;2022-10-31T03:27:02;19.80;66.70
40289;DHT22;28991;52.028;5.526;2022-10-31T03:29:32;19.80;66.70
40289;DHT22;28991;52.028;5.526;2022-10-31T03:32:00;19.80;66.70
40289;DHT22;28991;52.028;5.526;2022-10-31T03:34:27;20.40;67.10
40289;DHT22;28991;52.028;5.526;2022-10-31T03:36:54;19.80;66.70
40289;DHT22;28991;52.028;5.526;2022-10-31T03:39:21;19.80;66.70
40289;DHT22;28991;52.028;5.526;2022-10-31T03:41:54;19.80;66.70
40289;DHT22;28991;52.028;5.526;2022-10-31T03:44:20;19.80;66.70
40289;DHT22;28991;52.028;5.526;2022-10-31T03:46:46;19.80;66.70
40289;DHT22;28991;52.028;5.526;2022-10-31T03:49:12;19.80;66.70
40289;DHT22;28991;52.028;5.526;2022-10-31T03:51:40;19.80;66.70
40289;DHT22;28991;52.028;5.526;2022-10-31T03:54:09;19.70;66.70
40289;DHT22;28991;52.028;5.526;2022-10-31T03:56:43;19.80;66.80
40289;DHT22;28991;52.028;5.526;2022-10-31T03:59:13;19.80;66.70
40289;DHT22;28991;52.028;5.526;2022-10-31T04:01:40;19.80;66.80
40289;DHT22;28991;52.028;5.526;2022-10-31T04:04:06;19.80;66.70
40289;DHT22;28991;52.028;5.526;2022-10-31T04:06:32;19.80;66.80
40289;DHT22;28991;52.028;5.526;2022-10-31T04:08:59;19.70;66.70
40289;DHT22;28991;52.028;5.526;2022-10-31T04:11:27;19.70;66.70
40289;DHT22;28991;52.028;5.526;2022-10-31T04:13:53;19.70;66.70
40289;DHT22;28991;52.028;5.526;2022-10-31T04:16:20;19.90;66.80
40289;DHT22;28991;52.028;5.526;2022-10-31T04:18:46;19.80;66.80
40289;DHT22;28991;52.028;5.526;2022-10-31T04:21:12;19.80;66.80
40289;DHT22;28991;52.028;5.526;2022-10-31T04:23:37;19.70;66.70
40289;DHT22;28991;52.028;5.526;2022-10-31T04:26:03;19.80;66.80
40289;DHT22;28991;52.028;5.526;2022-10-31T04:28:29;19.80;66.80
40289;DHT22;28991;52.028;5.526;2022-10-31T04:30:54;19.70;66.70
40289;DHT22;28991;52.028;5.526;2022-10-31T04:33:20;19.70;66.70
40289;DHT22;28991;52.028;5.526;2022-10-31T04:35:45;19.70;66.70
40289;DHT22;28991;52.028;5.526;2022-10-31T04:38:11;19.70;66.70
40289;DHT22;28991;52.028;5.526;2022-10-31T04:40:37;19.70;66.70
40289;DHT22;28991;52.028;5.526;2022-10-31T04:43:02;19.70;66.70
40289;DHT22;28991;52.028;5.526;2022-10-31T04:45:28;19.70;66.70
40289;DHT22;28991;52.028;5.526;2022-10-31T04:47:53;19.80;66.80
40289;DHT22;28991;52.028;5.526;2022-10-31T04:50:19;19.70;66.70
40289;DHT22;28991;52.028;5.526;2022-10-31T04:52:45;19.70;66.70
40289;DHT22;28991;52.028;5.526;2022-10-31T04:55:11;19.70;66.70
40289;DHT22;28991;52.028;5.526;2022-10-31T04:57:40;19.70;66.70
40289;DHT22;28991;52.028;5.526;2022-10-31T05:00:06;19.70;66.70
40289;DHT22;28991;52.028;5.526;2022-10-31T05:02:32;19.70;66.70
40289;DHT22;28991;52.028;5.526;2022-10-31T05:04:57;19.70;66.70
40289;DHT22;28991;52.028;5.526;2022-10-31T05:07:23;19.70;66.70
40289;DHT22;28991;52.028;5.526;2022-10-31T05:09:48;19.80;66.80
40289;DHT22;28991;52.028;5.526;2022-10-31T05:12:14;19.70;66.70
40289;DHT22;28991;52.028;5.526;2022-10-31T05:14:39;19.70;66.70
40289;DHT22;28991;52.028;5.526;2022-10-31T05:17:04;19.70;66.70
40289;DHT22;28991;52.028;5.526;2022-10-31T05:19:30;19.70;66.70
40289;DHT22;28991;52.028;5.526;2022-10-31T05:21:55;19.70;66.70
40289;DHT22;28991;52.028;5.526;2022-10-31T05:24:21;19.70;66.70
40289;DHT22;28991;52.028;5.526;2022-10-31T05:26:47;19.70;66.70
40289;DHT22;28991;52.028;5.526;2022-10-31T05:29:13;19.70;66.70
40289;DHT22;28991;52.028;5.526;2022-10-31T05:31:38;19.70;66.70
40289;DHT22;28991;52.028;5.526;2022-10-31T05:34:03;19.70;66.70
40289;DHT22;28991;52.028;5.526;2022-10-31T05:36:29;20.10;66.90
40289;DHT22;28991;52.028;5.526;2022-10-31T05:38:54;19.70;66.70
40289;DHT22;28991;52.028;5.526;2022-10-31T05:41:20;19.70;66.70
40289;DHT22;28991;52.028;5.526;2022-10-31T05:43:45;19.70;66.70
40289;DHT22;28991;52.028;5.526;2022-10-31T05:46:11;19.70;66.70
40289;DHT22;28991;52.028;5.526;2022-10-31T05:48:36;19.70;66.70
40289;DHT22;28991;52.028;5.526;2022-10-31T05:51:02;19.60;66.60
40289;DHT22;28991;52.028;5.526;2022-10-31T05:53:27;19.70;66.70
40289;DHT22;28991;52.028;5.526;2022-10-31T05:55:53;20.10;66.90
40289;DHT22;28991;52.028;5.526;2022-10-31T05:58:18;19.70;66.70
40289;DHT22;28991;52.028;5.526;2022-10-31T06:00:44;19.70;66.70
40289;DHT22;28991;52.028;5.526;2022-10-31T06:03:09;19.70;66.70
40289;DHT22;28991;52.028;5.526;2022-10-31T06:05:35;19.70;66.80
40289;DHT22;28991;52.028;5.526;2022-10-31T06:08:00;19.70;66.80
40289;DHT22;28991;52.028;5.526;2022-10-31T06:10:26;19.70;66.30
40289;DHT22;28991;52.028;5.526;2022-10-31T06:12:51;19.70;66.10
40289;DHT22;28991;52.028;5.526;2022-10-31T06:15:17;19.80;65.70
40289;DHT22;28991;52.028;5.526;2022-10-31T06:17:43;19.90;65.70
40289;DHT22;28991;52.028;5.526;2022-10-31T06:20:08;19.90;65.40
40289;DHT22;28991;52.028;5.526;2022-10-31T06:22:34;19.90;65.00
40289;DHT22;28991;52.028;5.526;2022-10-31T06:24:59;20.00;63.60
40289;DHT22;28991;52.028;5.526;2022-10-31T06:27:25;20.60;63.20
40289;DHT22;28991;52.028;5.526;2022-10-31T06:29:50;20.00;62.60
40289;DHT22;28991;52.028;5.526;2022-10-31T06:32:16;20.10;62.10
40289;DHT22;28991;52.028;5.526;2022-10-31T06:34:42;20.10;61.70
40289;DHT22;28991;52.028;5.526;2022-10-31T06:37:08;20.20;61.50
40289;DHT22;28991;52.028;5.526;2022-10-31T06:39:34;20.10;60.80
40289;DHT22;28991;52.028;5.526;2022-10-31T06:42:00;20.20;60.70
40289;DHT22;28991;52.028;5.526;2022-10-31T06:44:25;20.20;60.80
40289;DHT22;28991;52.028;5.526;2022-10-31T06:46:51;20.20;61.40
40289;DHT22;28991;52.028;5.526;2022-10-31T06:49:17;20.20;61.00
40289;DHT22;28991;52.028;5.526;2022-10-31T06:51:42;20.20;61.10
40289;DHT22;28991;52.028;5.526;2022-10-31T06:54:08;20.60;61.00
40289;DHT22;28991;52.028;5.526;2022-10-31T06:56:34;20.20;59.90
40289;DHT22;28991;52.028;5.526;2022-10-31T06:58:59;20.30;60.10
40289;DHT22;28991;52.028;5.526;2022-10-31T07:01:25;20.20;60.10
40289;DHT22;28991;52.028;5.526;2022-10-31T07:03:50;20.20;60.30
40289;DHT22;28991;52.028;5.526;2022-10-31T07:06:15;20.20;60.40
40289;DHT22;28991;52.028;5.526;2022-10-31T07:08:41;20.20;59.10
40289;DHT22;28991;52.028;5.526;2022-10-31T07:11:06;20.20;59.00
40289;DHT22;28991;52.028;5.526;2022-10-31T07:13:32;20.30;59.00
40289;DHT22;28991;52.028;5.526;2022-10-31T07:16:03;20.20;59.10
40289;DHT22;28991;52.028;5.526;2022-10-31T07:18:28;20.20;58.40
40289;DHT22;28991;52.028;5.526;2022-10-31T07:20:54;20.20;58.30
40289;DHT22;28991;52.028;5.526;2022-10-31T07:23:19;20.30;58.30
40289;DHT22;28991;52.028;5.526;2022-10-31T07:25:45;20.30;58.80
40289;DHT22;28991;52.028;5.526;2022-10-31T07:28:10;20.30;58.10
40289;DHT22;28991;52.028;5.526;2022-10-31T07:30:36;20.40;58.10
40289;DHT22;28991;52.028;5.526;2022-10-31T07:33:02;20.40;58.20
40289;DHT22;28991;52.028;5.526;2022-10-31T07:35:28;20.40;58.10
40289;DHT22;28991;52.028;5.526;2022-10-31T07:37:54;21.00;58.50
40289;DHT22;28991;52.028;5.526;2022-10-31T07:40:20;18.70;57.20
40289;DHT22;28991;52.028;5.526;2022-10-31T07:42:46;20.50;58.20
40289;DHT22;28991;52.028;5.526;2022-10-31T07:45:13;20.80;58.20
40289;DHT22;28991;52.028;5.526;2022-10-31T07:47:39;20.60;57.90
40289;DHT22;28991;52.028;5.526;2022-10-31T07:50:05;20.60;58.00
40289;DHT22;28991;52.028;5.526;2022-10-31T07:52:31;20.70;58.10
40289;DHT22;28991;52.028;5.526;2022-10-31T07:54:56;20.70;58.20
40289;DHT22;28991;52.028;5.526;2022-10-31T07:57:22;22.70;58.90
40289;DHT22;28991;52.028;5.526;2022-10-31T07:59:47;20.80;58.10
40289;DHT22;28991;52.028;5.526;2022-10-31T08:02:13;20.80;58.50
40289;DHT22;28991;52.028;5.526;2022-10-31T08:04:38;21.30;58.70
40289;DHT22;28991;52.028;5.526;2022-10-31T08:07:04;20.80;58.40
40289;DHT22;28991;52.028;5.526;2022-10-31T08:09:29;20.80;58.40
40289;DHT22;28991;52.028;5.526;2022-10-31T08:11:55;20.90;58.30
40289;DHT22;28991;52.028;5.526;2022-10-31T08:14:20;20.80;58.40
40289;DHT22;28991;52.028;5.526;2022-10-31T08:16:46;20.90;58.40
40289;DHT22;28991;52.028;5.526;2022-10-31T08:19:11;20.90;58.50
40289;DHT22;28991;52.028;5.526;2022-10-31T08:21:37;21.00;58.60
40289;DHT22;28991;52.028;5.526;2022-10-31T08:24:02;21.00;58.40
40289;DHT22;28991;52.028;5.526;2022-10-31T08:26:28;21.10;59.00
40289;DHT22;28991;52.028;5.526;2022-10-31T08:28:54;21.00;58.50
40289;DHT22;28991;52.028;5.526;2022-10-31T08:31:20;21.10;58.50
40289;DHT22;28991;52.028;5.526;2022-10-31T08:33:45;21.00;58.70
40289;DHT22;28991;52.028;5.526;2022-10-31T08:36:11;21.20;58.60
40289;DHT22;28991;52.028;5.526;2022-10-31T08:38:37;21.20;58.70
40289;DHT22;28991;52.028;5.526;2022-10-31T08:41:02;21.30;58.80
40289;DHT22;28991;52.028;5.526;2022-10-31T08:43:27;21.30;59.10
40289;DHT22;28991;52.028;5.526;2022-10-31T08:45:53;21.20;58.60
40289;DHT22;28991;52.028;5.526;2022-10-31T08:48:20;21.40;58.80
40289;DHT22;28991;52.028;5.526;2022-10-31T08:50:46;21.40;58.80
40289;DHT22;28991;52.028;5.526;2022-10-31T08:53:16;21.50;58.80
40289;DHT22;28991;52.028;5.526;2022-10-31T08:55:42;21.50;59.10
40289;DHT22;28991;52.028;5.526;2022-10-31T08:58:11;21.40;59.00
40289;DHT22;28991;52.028;5.526;2022-10-31T09:00:37;21.40;59.00
40289;DHT22;28991;52.028;5.526;2022-10-31T09:03:04;21.50;59.20
40289;DHT22;28991;52.028;5.526;2022-10-31T09:05:31;21.50;59.20
40289;DHT22;28991;52.028;5.526;2022-10-31T09:07:57;21.50;59.30
40289;DHT22;28991;52.028;5.526;2022-10-31T09:10:23;21.50;59.30
40289;DHT22;28991;52.028;5.526;2022-10-31T09:13:09;21.50;59.40
40289;DHT22;28991;52.028;5.526;2022-10-31T09:15:36;21.50;59.50
40289;DHT22;28991;52.028;5.526;2022-10-31T09:18:03;21.50;59.40
40289;DHT22;28991;52.028;5.526;2022-10-31T09:20:29;21.50;59.50
40289;DHT22;28991;52.028;5.526;2022-10-31T09:22:58;21.50;59.60
40289;DHT22;28991;52.028;5.526;2022-10-31T09:25:24;21.50;59.50
40289;DHT22;28991;52.028;5.526;2022-10-31T09:27:49;21.60;59.60
40289;DHT22;28991;52.028;5.526;2022-10-31T09:30:15;21.50;59.70
40289;DHT22;28991;52.028;5.526;2022-10-31T09:32:40;21.50;59.80
40289;DHT22;28991;52.028;5.526;2022-10-31T09:35:06;21.50;59.90
40289;DHT22;28991;52.028;5.526;2022-10-31T09:37:31;21.40;60.00
40289;DHT22;28991;52.028;5.526;2022-10-31T09:39:57;21.50;60.00
40289;DHT22;28991;52.028;5.526;2022-10-31T09:42:29;21.40;60.10
40289;DHT22;28991;52.028;5.526;2022-10-31T09:45:08;21.40;60.30
40289;DHT22;28991;52.028;5.526;2022-10-31T09:47:40;21.40;60.40
40289;DHT22;28991;52.028;5.526;2022-10-31T09:50:19;21.40;60.50
40289;DHT22;28991;52.028;5.526;2022-10-31T09:52:51;21.40;60.60
40289;DHT22;28991;52.028;5.526;2022-10-31T09:55:21;21.40;60.70
40289;DHT22;28991;52.028;5.526;2022-10-31T09:57:48;21.80;61.00
40289;DHT22;28991;52.028;5.526;2022-10-31T10:00:17;21.40;60.80
40289;DHT22;28991;52.028;5.526;2022-10-31T10:02:46;21.40;60.80
40289;DHT22;28991;52.028;5.526;2022-10-31T10:05:13;21.40;60.90
40289;DHT22;28991;52.028;5.526;2022-10-31T10:07:54;21.30;60.90
40289;DHT22;28991;52.028;5.526;2022-10-31T10:10:27;21.30;61.00
40289;DHT22;28991;52.028;5.526;2022-10-31T10:15:51;21.30;61.10
40289;DHT22;28991;52.028;5.526;2022-10-31T10:23:20;21.30;61.10
40289;DHT22;28991;52.028;5.526;2022-10-31T10:25:49;21.30;61.70
40289;DHT22;28991;52.028;5.526;2022-10-31T10:28:21;21.30;61.10
40289;DHT22;28991;52.028;5.526;2022-10-31T10:30:53;21.30;61.10
40289;DHT22;28991;52.028;5.526;2022-10-31T10:33:30;21.30;61.10
40289;DHT22;28991;52.028;5.526;2022-10-31T10:36:00;21.30;61.20
40289;DHT22;28991;52.028;5.526;2022-10-31T10:40:52;21.30;61.10
40289;DHT22;28991;52.028;5.526;2022-10-31T10:43:19;21.30;61.10
40289;DHT22;28991;52.028;5.526;2022-10-31T10:48:47;21.20;61.20
40289;DHT22;28991;52.028;5.526;2022-10-31T10:51:38;21.20;61.30
40289;DHT22;28991;52.028;5.526;2022-10-31T10:59:11;21.20;61.60
40289;DHT22;28991;52.028;5.526;2022-10-31T11:01:38;21.20;61.70
40289;DHT22;28991;52.028;5.526;2022-10-31T11:04:05;21.20;61.70
40289;DHT22;28991;52.028;5.526;2022-10-31T11:06:40;21.20;61.70
40289;DHT22;28991;52.028;5.526;2022-10-31T11:09:08;21.10;61.70
40289;DHT22;28991;52.028;5.526;2022-10-31T11:11:35;21.10;61.80
40289;DHT22;28991;52.028;5.526;2022-10-31T11:14:03;21.20;61.90
40289;DHT22;28991;52.028;5.526;2022-10-31T11:16:34;21.10;61.90
40289;DHT22;28991;52.028;5.526;2022-10-31T11:19:08;21.10;62.10
40289;DHT22;28991;52.028;5.526;2022-10-31T11:21:39;21.10;62.20
40289;DHT22;28991;52.028;5.526;2022-10-31T11:26:34;21.20;62.30
40289;DHT22;28991;52.028;5.526;2022-10-31T11:29:00;21.10;62.50
40289;DHT22;28991;52.028;5.526;2022-10-31T11:31:28;21.10;62.60
40289;DHT22;28991;52.028;5.526;2022-10-31T11:34:04;21.20;62.80
40289;DHT22;28991;52.028;5.526;2022-10-31T11:36:30;21.20;62.60
40289;DHT22;28991;52.028;5.526;2022-10-31T11:38:57;21.20;62.70
40289;DHT22;28991;52.028;5.526;2022-10-31T11:41:30;21.20;62.60
40289;DHT22;28991;52.028;5.526;2022-10-31T11:43:58;21.20;62.80
40289;DHT22;28991;52.028;5.526;2022-10-31T11:46:41;21.20;62.70
40289;DHT22;28991;52.028;5.526;2022-10-31T11:49:13;21.20;62.60
40289;DHT22;28991;52.028;5.526;2022-10-31T11:51:40;21.30;62.70
40289;DHT22;28991;52.028;5.526;2022-10-31T11:54:06;21.30;62.80
40289;DHT22;28991;52.028;5.526;2022-10-31T11:56:40;21.20;62.80
40289;DHT22;28991;52.028;5.526;2022-10-31T11:59:15;21.20;63.00
40289;DHT22;28991;52.028;5.526;2022-10-31T12:01:45;21.20;62.90
40289;DHT22;28991;52.028;5.526;2022-10-31T12:04:11;21.30;63.10
40289;DHT22;28991;52.028;5.526;2022-10-31T12:06:38;21.30;63.10
40289;DHT22;28991;52.028;5.526;2022-10-31T12:09:10;21.30;63.00
40289;DHT22;28991;52.028;5.526;2022-10-31T12:11:47;21.30;62.90
40289;DHT22;28991;52.028;5.526;2022-10-31T12:14:17;21.30;63.10
40289;DHT22;28991;52.028;5.526;2022-10-31T12:19:30;21.40;63.00
40289;DHT22;28991;52.028;5.526;2022-10-31T12:22:05;21.30;63.00
40289;DHT22;28991;52.028;5.526;2022-10-31T12:32:30;21.30;63.50
40289;DHT22;28991;52.028;5.526;2022-10-31T12:35:01;21.30;63.30
40289;DHT22;28991;52.028;5.526;2022-10-31T12:40:39;21.30;63.50
40289;DHT22;28991;52.028;5.526;2022-10-31T12:45:56;21.30;63.90
40289;DHT22;28991;52.028;5.526;2022-10-31T12:51:15;21.30;63.90
40289;DHT22;28991;52.028;5.526;2022-10-31T12:53:49;21.30;64.00
40289;DHT22;28991;52.028;5.526;2022-10-31T12:56:41;21.30;64.60
40289;DHT22;28991;52.028;5.526;2022-10-31T13:07:12;21.40;64.10
40289;DHT22;28991;52.028;5.526;2022-10-31T13:09:42;21.40;63.90
40289;DHT22;28991;52.028;5.526;2022-10-31T13:12:08;21.50;64.00
40289;DHT22;28991;52.028;5.526;2022-10-31T13:14:37;19.50;62.90
40289;DHT22;28991;52.028;5.526;2022-10-31T13:17:04;21.40;63.80
40289;DHT22;28991;52.028;5.526;2022-10-31T13:19:38;21.50;64.00
40289;DHT22;28991;52.028;5.526;2022-10-31T13:22:09;21.50;63.90
40289;DHT22;28991;52.028;5.526;2022-10-31T13:24:48;21.40;63.90
40289;DHT22;28991;52.028;5.526;2022-10-31T13:27:18;21.40;63.80
40289;DHT22;28991;52.028;5.526;2022-10-31T13:30:05;21.60;63.90
40289;DHT22;28991;52.028;5.526;2022-10-31T13:32:39;21.40;63.80
40289;DHT22;28991;52.028;5.526;2022-10-31T13:35:08;21.40;63.80
40289;DHT22;28991;52.028;5.526;2022-10-31T13:37:40;21.30;63.80
40289;DHT22;28991;52.028;5.526;2022-10-31T13:40:18;21.40;63.90
40289;DHT22;28991;52.028;5.526;2022-10-31T13:45:15;21.30;63.80
40289;DHT22;28991;52.028;5.526;2022-10-31T13:47:41;21.40;64.50
40289;DHT22;28991;52.028;5.526;2022-10-31T13:52:48;21.30;64.00
40289;DHT22;28991;52.028;5.526;2022-10-31T13:57:58;21.30;64.00
40289;DHT22;28991;52.028;5.526;2022-10-31T14:00:24;21.70;64.30
40289;DHT22;28991;52.028;5.526;2022-10-31T14:02:51;21.30;64.10
40289;DHT22;28991;52.028;5.526;2022-10-31T14:05:25;21.30;64.10
40289;DHT22;28991;52.028;5.526;2022-10-31T14:07:51;21.30;64.00
40289;DHT22;28991;52.028;5.526;2022-10-31T14:10:28;21.20;64.00
40289;DHT22;28991;52.028;5.526;2022-10-31T14:15:38;21.30;64.20
40289;DHT22;28991;52.028;5.526;2022-10-31T14:18:06;21.40;64.20
40289;DHT22;28991;52.028;5.526;2022-10-31T14:20:42;21.40;64.20
40289;DHT22;28991;52.028;5.526;2022-10-31T14:25:37;21.40;64.50
40289;DHT22;28991;52.028;5.526;2022-10-31T14:28:05;21.40;64.20
40289;DHT22;28991;52.028;5.526;2022-10-31T14:30:51;21.40;64.30
40289;DHT22;28991;52.028;5.526;2022-10-31T14:33:18;21.40;64.20
40289;DHT22;28991;52.028;5.526;2022-10-31T14:35:52;21.40;64.20
40289;DHT22;28991;52.028;5.526;2022-10-31T14:38:24;21.40;64.10
40289;DHT22;28991;52.028;5.526;2022-10-31T14:41:00;21.40;64.10
40289;DHT22;28991;52.028;5.526;2022-10-31T14:43:33;21.40;64.00
40289;DHT22;28991;52.028;5.526;2022-10-31T14:48:48;21.30;63.80
40289;DHT22;28991;52.028;5.526;2022-10-31T14:51:22;21.30;63.70
40289;DHT22;28991;52.028;5.526;2022-10-31T14:53:49;21.30;63.80
40289;DHT22;28991;52.028;5.526;2022-10-31T14:56:25;21.50;63.90
40289;DHT22;28991;52.028;5.526;2022-10-31T14:58:51;21.30;63.80
40289;DHT22;28991;52.028;5.526;2022-10-31T15:01:19;21.20;63.70
40289;DHT22;28991;52.028;5.526;2022-10-31T15:03:46;21.20;63.70
40289;DHT22;28991;52.028;5.526;2022-10-31T15:06:13;21.20;64.00
40289;DHT22;28991;52.028;5.526;2022-10-31T15:08:46;21.30;63.90
40289;DHT22;28991;52.028;5.526;2022-10-31T15:13:58;21.20;63.80
40289;DHT22;28991;52.028;5.526;2022-10-31T15:19:03;21.20;63.70
40289;DHT22;28991;52.028;5.526;2022-10-31T15:21:29;21.30;63.60
40289;DHT22;28991;52.028;5.526;2022-10-31T15:23:57;21.20;63.60
40289;DHT22;28991;52.028;5.526;2022-10-31T15:26:24;21.20;63.60
40289;DHT22;28991;52.028;5.526;2022-10-31T15:28:58;21.20;63.60
40289;DHT22;28991;52.028;5.526;2022-10-31T15:31:25;21.10;63.60
40289;DHT22;28991;52.028;5.526;2022-10-31T15:33:50;21.10;63.60
40289;DHT22;28991;52.028;5.526;2022-10-31T15:36:20;21.10;63.70
40289;DHT22;28991;52.028;5.526;2022-10-31T15:38:46;21.10;63.80
40289;DHT22;28991;52.028;5.526;2022-10-31T15:41:19;21.00;63.70
40289;DHT22;28991;52.028;5.526;2022-10-31T15:43:48;21.00;63.80
40289;DHT22;28991;52.028;5.526;2022-10-31T15:46:13;21.00;63.90
40289;DHT22;28991;52.028;5.526;2022-10-31T15:48:39;20.90;63.80
40289;DHT22;28991;52.028;5.526;2022-10-31T15:51:09;21.00;64.00
40289;DHT22;28991;52.028;5.526;2022-10-31T15:53:52;20.90;63.90
40289;DHT22;28991;52.028;5.526;2022-10-31T15:56:27;20.90;64.00
40289;DHT22;28991;52.028;5.526;2022-10-31T15:58:53;20.90;64.00
40289;DHT22;28991;52.028;5.526;2022-10-31T16:01:24;20.80;64.00
40289;DHT22;28991;52.028;5.526;2022-10-31T16:06:34;20.80;64.10
40289;DHT22;28991;52.028;5.526;2022-10-31T16:09:00;20.80;64.20
40289;DHT22;28991;52.028;5.526;2022-10-31T16:13:59;20.80;64.20
40289;DHT22;28991;52.028;5.526;2022-10-31T16:16:25;20.80;64.20
40289;DHT22;28991;52.028;5.526;2022-10-31T16:18:51;20.70;64.20
40289;DHT22;28991;52.028;5.526;2022-10-31T16:21:24;20.90;64.40
40289;DHT22;28991;52.028;5.526;2022-10-31T16:23:52;20.70;64.30
40289;DHT22;28991;52.028;5.526;2022-10-31T16:26:19;20.70;64.30
40289;DHT22;28991;52.028;5.526;2022-10-31T16:28:53;20.70;64.30
40289;DHT22;28991;52.028;5.526;2022-10-31T16:31:25;20.60;64.30
40289;DHT22;28991;52.028;5.526;2022-10-31T16:34:00;20.70;64.40
40289;DHT22;28991;52.028;5.526;2022-10-31T16:36:30;20.80;64.50
40289;DHT22;28991;52.028;5.526;2022-10-31T16:38:57;20.60;64.40
40289;DHT22;28991;52.028;5.526;2022-10-31T16:41:22;20.70;64.40
40289;DHT22;28991;52.028;5.526;2022-10-31T16:43:48;20.70;64.40
40289;DHT22;28991;52.028;5.526;2022-10-31T16:46:14;20.60;64.40
40289;DHT22;28991;52.028;5.526;2022-10-31T16:48:40;20.60;64.40
40289;DHT22;28991;52.028;5.526;2022-10-31T16:51:07;20.60;64.50
40289;DHT22;28991;52.028;5.526;2022-10-31T16:53:32;20.60;64.50
40289;DHT22;28991;52.028;5.526;2022-10-31T16:55:58;20.60;64.50
40289;DHT22;28991;52.028;5.526;2022-10-31T16:58:25;20.50;64.50
40289;DHT22;28991;52.028;5.526;2022-10-31T17:00:51;20.60;64.50
40289;DHT22;28991;52.028;5.526;2022-10-31T17:03:17;20.60;64.50
40289;DHT22;28991;52.028;5.526;2022-10-31T17:05:42;20.50;64.50
40289;DHT22;28991;52.028;5.526;2022-10-31T17:08:08;20.50;64.50
40289;DHT22;28991;52.028;5.526;2022-10-31T17:10:33;21.10;64.90
40289;DHT22;28991;52.028;5.526;2022-10-31T17:12:59;20.60;64.80
40289;DHT22;28991;52.028;5.526;2022-10-31T17:15:27;20.50;64.70
40289;DHT22;28991;52.028;5.526;2022-10-31T17:17:53;20.50;64.70